sensor_id;sensor_type;location;lat;lon;timestamp;P1;durP1;ratioP1;P2;durP2;ratioP2
65855;SDS011;52631;42.208;24.656;2022-09-09T00:06:49;9.80;;;7.78;;
65855;SDS011;52631;42.208;24.656;2022-09-09T00:09:19;9.20;;;7.88;;
65855;SDS011;52631;42.208;24.656;2022-09-09T00:11:54;10.45;;;8.52;;
65855;SDS011;52631;42.208;24.656;2022-09-09T00:14:32;9.55;;;7.95;;
65855;SDS011;52631;42.208;24.656;2022-09-09T00:17:47;8.65;;;7.18;;
65855;SDS011;52631;42.208;24.656;2022-09-09T00:22:47;9.93;;;7.93;;
65855;SDS011;52631;42.208;24.656;2022-09-09T00:25:21;12.68;;;7.55;;
65855;SDS011;52631;42.208;24.656;2022-09-09T00:27:51;8.13;;;7.07;;
65855;SDS011;52631;42.208;24.656;2022-09-09T00:30:19;8.27;;;6.38;;
65855;SDS011;52631;42.208;24.656;2022-09-09T00:32:47;8.70;;;6.63;;
65855;SDS011;52631;42.208;24.656;2022-09-09T00:37:52;9.07;;;6.43;;
65855;SDS011;52631;42.208;24.656;2022-09-09T00:40:24;9.20;;;6.75;;
65855;SDS011;52631;42.208;24.656;2022-09-09T00:43:38;9.60;;;7.05;;
65855;SDS011;52631;42.208;24.656;2022-09-09T00:48:11;9.02;;;7.00;;
65855;SDS011;52631;42.208;24.656;2022-09-09T00:53:18;8.88;;;5.97;;
65855;SDS011;52631;42.208;24.656;2022-09-09T00:58:55;7.35;;;5.72;;
65855;SDS011;52631;42.208;24.656;2022-09-09T01:01:32;7.15;;;5.60;;
65855;SDS011;52631;42.208;24.656;2022-09-09T01:03:58;8.45;;;5.65;;
65855;SDS011;52631;42.208;24.656;2022-09-09T01:12:03;9.23;;;5.78;;
65855;SDS011;52631;42.208;24.656;2022-09-09T01:17:03;7.50;;;5.68;;
65855;SDS011;52631;42.208;24.656;2022-09-09T01:19:38;9.98;;;6.50;;
65855;SDS011;52631;42.208;24.656;2022-09-09T01:25:01;10.07;;;6.35;;
65855;SDS011;52631;42.208;24.656;2022-09-09T01:27:46;8.98;;;6.38;;
65855;SDS011;52631;42.208;24.656;2022-09-09T01:30:14;12.05;;;6.40;;
65855;SDS011;52631;42.208;24.656;2022-09-09T01:32:59;11.95;;;6.40;;
65855;SDS011;52631;42.208;24.656;2022-09-09T01:38:21;9.55;;;6.72;;
65855;SDS011;52631;42.208;24.656;2022-09-09T01:40:47;10.02;;;7.22;;
65855;SDS011;52631;42.208;24.656;2022-09-09T01:43:14;9.75;;;7.07;;
65855;SDS011;52631;42.208;24.656;2022-09-09T01:45:39;9.50;;;7.57;;
65855;SDS011;52631;42.208;24.656;2022-09-09T01:48:06;10.50;;;7.22;;
65855;SDS011;52631;42.208;24.656;2022-09-09T01:50:31;13.45;;;7.45;;
65855;SDS011;52631;42.208;24.656;2022-09-09T01:52:58;10.68;;;7.35;;
65855;SDS011;52631;42.208;24.656;2022-09-09T01:55:32;12.02;;;7.60;;
65855;SDS011;52631;42.208;24.656;2022-09-09T01:58:04;15.38;;;8.55;;
65855;SDS011;52631;42.208;24.656;2022-09-09T02:00:36;14.07;;;8.32;;
65855;SDS011;52631;42.208;24.656;2022-09-09T02:05:48;12.27;;;9.07;;
65855;SDS011;52631;42.208;24.656;2022-09-09T02:11:18;12.23;;;9.00;;
65855;SDS011;52631;42.208;24.656;2022-09-09T02:13:48;13.45;;;8.38;;
65855;SDS011;52631;42.208;24.656;2022-09-09T02:21:33;15.50;;;8.68;;
65855;SDS011;52631;42.208;24.656;2022-09-09T02:24:00;11.43;;;8.57;;
65855;SDS011;52631;42.208;24.656;2022-09-09T02:26:30;16.13;;;9.23;;
65855;SDS011;52631;42.208;24.656;2022-09-09T02:31:46;12.40;;;9.40;;
65855;SDS011;52631;42.208;24.656;2022-09-09T02:34:13;12.07;;;8.88;;
65855;SDS011;52631;42.208;24.656;2022-09-09T02:36:39;14.63;;;8.32;;
65855;SDS011;52631;42.208;24.656;2022-09-09T02:39:06;11.82;;;8.07;;
65855;SDS011;52631;42.208;24.656;2022-09-09T02:41:33;14.05;;;8.43;;
65855;SDS011;52631;42.208;24.656;2022-09-09T02:44:00;12.73;;;8.85;;
65855;SDS011;52631;42.208;24.656;2022-09-09T02:46:35;12.18;;;8.10;;
65855;SDS011;52631;42.208;24.656;2022-09-09T02:49:03;17.00;;;9.65;;
65855;SDS011;52631;42.208;24.656;2022-09-09T02:51:45;11.77;;;8.63;;
65855;SDS011;52631;42.208;24.656;2022-09-09T02:56:55;11.85;;;8.57;;
65855;SDS011;52631;42.208;24.656;2022-09-09T02:59:44;14.85;;;8.65;;
65855;SDS011;52631;42.208;24.656;2022-09-09T03:02:10;11.40;;;8.52;;
65855;SDS011;52631;42.208;24.656;2022-09-09T03:04:36;13.02;;;9.38;;
65855;SDS011;52631;42.208;24.656;2022-09-09T03:07:02;14.57;;;8.85;;
65855;SDS011;52631;42.208;24.656;2022-09-09T03:09:30;12.52;;;9.10;;
65855;SDS011;52631;42.208;24.656;2022-09-09T03:11:55;14.77;;;9.35;;
65855;SDS011;52631;42.208;24.656;2022-09-09T03:14:22;12.30;;;8.73;;
65855;SDS011;52631;42.208;24.656;2022-09-09T03:16:53;11.77;;;8.60;;
65855;SDS011;52631;42.208;24.656;2022-09-09T03:19:19;10.43;;;8.02;;
65855;SDS011;52631;42.208;24.656;2022-09-09T03:21:45;11.48;;;8.65;;
65855;SDS011;52631;42.208;24.656;2022-09-09T03:24:11;13.10;;;8.85;;
65855;SDS011;52631;42.208;24.656;2022-09-09T03:26:37;12.35;;;8.43;;
65855;SDS011;52631;42.208;24.656;2022-09-09T03:29:03;11.70;;;9.10;;
65855;SDS011;52631;42.208;24.656;2022-09-09T03:31:31;12.93;;;8.85;;
65855;SDS011;52631;42.208;24.656;2022-09-09T03:33:57;15.10;;;9.00;;
65855;SDS011;52631;42.208;24.656;2022-09-09T03:36:23;12.70;;;8.98;;
65855;SDS011;52631;42.208;24.656;2022-09-09T03:38:53;14.15;;;9.18;;
65855;SDS011;52631;42.208;24.656;2022-09-09T03:41:23;11.20;;;8.20;;
65855;SDS011;52631;42.208;24.656;2022-09-09T03:43:51;10.52;;;8.18;;
65855;SDS011;52631;42.208;24.656;2022-09-09T03:46:18;14.48;;;8.90;;
65855;SDS011;52631;42.208;24.656;2022-09-09T03:48:44;13.30;;;8.75;;
65855;SDS011;52631;42.208;24.656;2022-09-09T03:51:09;13.00;;;8.48;;
65855;SDS011;52631;42.208;24.656;2022-09-09T03:53:35;22.25;;;9.00;;
65855;SDS011;52631;42.208;24.656;2022-09-09T03:56:02;13.10;;;8.98;;
65855;SDS011;52631;42.208;24.656;2022-09-09T03:58:28;12.30;;;9.00;;
65855;SDS011;52631;42.208;24.656;2022-09-09T04:00:55;11.98;;;8.50;;
65855;SDS011;52631;42.208;24.656;2022-09-09T04:03:21;11.45;;;8.98;;
65855;SDS011;52631;42.208;24.656;2022-09-09T04:05:49;12.20;;;8.65;;
65855;SDS011;52631;42.208;24.656;2022-09-09T04:08:16;13.85;;;8.98;;
65855;SDS011;52631;42.208;24.656;2022-09-09T04:10:44;13.48;;;9.65;;
65855;SDS011;52631;42.208;24.656;2022-09-09T04:13:11;15.93;;;9.95;;
65855;SDS011;52631;42.208;24.656;2022-09-09T04:15:38;17.50;;;9.57;;
65855;SDS011;52631;42.208;24.656;2022-09-09T04:18:03;11.82;;;9.52;;
65855;SDS011;52631;42.208;24.656;2022-09-09T04:20:28;17.58;;;9.45;;
65855;SDS011;52631;42.208;24.656;2022-09-09T04:22:55;20.55;;;10.80;;
65855;SDS011;52631;42.208;24.656;2022-09-09T04:25:20;22.15;;;11.05;;
65855;SDS011;52631;42.208;24.656;2022-09-09T04:27:46;27.45;;;12.10;;
65855;SDS011;52631;42.208;24.656;2022-09-09T04:30:12;14.02;;;10.75;;
65855;SDS011;52631;42.208;24.656;2022-09-09T04:32:38;16.30;;;10.30;;
65855;SDS011;52631;42.208;24.656;2022-09-09T04:35:03;20.25;;;10.57;;
65855;SDS011;52631;42.208;24.656;2022-09-09T04:37:29;15.27;;;8.85;;
65855;SDS011;52631;42.208;24.656;2022-09-09T04:39:55;15.98;;;9.07;;
65855;SDS011;52631;42.208;24.656;2022-09-09T04:42:20;11.43;;;8.50;;
65855;SDS011;52631;42.208;24.656;2022-09-09T04:44:46;13.40;;;8.32;;
65855;SDS011;52631;42.208;24.656;2022-09-09T04:47:12;14.52;;;8.57;;
65855;SDS011;52631;42.208;24.656;2022-09-09T04:49:39;15.80;;;9.15;;
65855;SDS011;52631;42.208;24.656;2022-09-09T04:52:04;14.85;;;9.25;;
65855;SDS011;52631;42.208;24.656;2022-09-09T04:54:30;15.45;;;10.55;;
65855;SDS011;52631;42.208;24.656;2022-09-09T04:56:55;16.05;;;9.93;;
65855;SDS011;52631;42.208;24.656;2022-09-09T04:59:21;16.90;;;10.20;;
65855;SDS011;52631;42.208;24.656;2022-09-09T05:01:47;15.35;;;10.75;;
65855;SDS011;52631;42.208;24.656;2022-09-09T05:04:13;20.20;;;11.80;;
65855;SDS011;52631;42.208;24.656;2022-09-09T05:06:40;26.13;;;10.60;;
65855;SDS011;52631;42.208;24.656;2022-09-09T05:09:05;17.08;;;9.63;;
65855;SDS011;52631;42.208;24.656;2022-09-09T05:11:31;16.45;;;9.50;;
65855;SDS011;52631;42.208;24.656;2022-09-09T05:14:00;12.30;;;9.32;;
65855;SDS011;52631;42.208;24.656;2022-09-09T05:16:26;13.95;;;10.63;;
65855;SDS011;52631;42.208;24.656;2022-09-09T05:18:51;17.13;;;10.75;;
65855;SDS011;52631;42.208;24.656;2022-09-09T05:21:18;15.88;;;10.68;;
65855;SDS011;52631;42.208;24.656;2022-09-09T05:23:44;15.57;;;9.90;;
65855;SDS011;52631;42.208;24.656;2022-09-09T05:26:14;13.43;;;9.60;;
65855;SDS011;52631;42.208;24.656;2022-09-09T05:28:41;13.80;;;9.32;;
65855;SDS011;52631;42.208;24.656;2022-09-09T05:31:07;14.75;;;10.85;;
65855;SDS011;52631;42.208;24.656;2022-09-09T05:33:34;18.35;;;11.85;;
65855;SDS011;52631;42.208;24.656;2022-09-09T05:36:01;15.70;;;11.45;;
65855;SDS011;52631;42.208;24.656;2022-09-09T05:38:31;15.70;;;10.80;;
65855;SDS011;52631;42.208;24.656;2022-09-09T05:40:58;19.83;;;11.35;;
65855;SDS011;52631;42.208;24.656;2022-09-09T05:43:24;16.52;;;9.50;;
65855;SDS011;52631;42.208;24.656;2022-09-09T05:48:46;19.77;;;10.35;;
65855;SDS011;52631;42.208;24.656;2022-09-09T05:51:14;18.58;;;10.55;;
65855;SDS011;52631;42.208;24.656;2022-09-09T05:53:41;42.20;;;11.10;;
65855;SDS011;52631;42.208;24.656;2022-09-09T05:56:08;15.40;;;8.45;;
65855;SDS011;52631;42.208;24.656;2022-09-09T05:58:39;12.75;;;8.02;;
65855;SDS011;52631;42.208;24.656;2022-09-09T06:01:05;13.77;;;8.55;;
65855;SDS011;52631;42.208;24.656;2022-09-09T06:03:35;30.17;;;10.60;;
65855;SDS011;52631;42.208;24.656;2022-09-09T06:06:06;29.73;;;10.25;;
65855;SDS011;52631;42.208;24.656;2022-09-09T06:08:33;13.48;;;8.27;;
65855;SDS011;52631;42.208;24.656;2022-09-09T06:11:09;10.23;;;8.45;;
65855;SDS011;52631;42.208;24.656;2022-09-09T06:13:37;14.60;;;9.60;;
65855;SDS011;52631;42.208;24.656;2022-09-09T06:16:03;14.20;;;9.30;;
65855;SDS011;52631;42.208;24.656;2022-09-09T06:18:30;16.77;;;9.43;;
65855;SDS011;52631;42.208;24.656;2022-09-09T06:21:02;13.45;;;9.07;;
65855;SDS011;52631;42.208;24.656;2022-09-09T06:23:29;11.48;;;9.10;;
65855;SDS011;52631;42.208;24.656;2022-09-09T06:26:03;18.92;;;9.27;;
65855;SDS011;52631;42.208;24.656;2022-09-09T06:28:33;12.77;;;9.80;;
65855;SDS011;52631;42.208;24.656;2022-09-09T06:30:59;15.70;;;9.45;;
65855;SDS011;52631;42.208;24.656;2022-09-09T06:33:26;13.30;;;8.95;;
65855;SDS011;52631;42.208;24.656;2022-09-09T06:35:52;16.63;;;8.95;;
65855;SDS011;52631;42.208;24.656;2022-09-09T06:38:19;12.57;;;8.98;;
65855;SDS011;52631;42.208;24.656;2022-09-09T06:40:53;15.82;;;10.85;;
65855;SDS011;52631;42.208;24.656;2022-09-09T06:43:21;19.55;;;10.68;;
65855;SDS011;52631;42.208;24.656;2022-09-09T06:45:54;15.52;;;9.35;;
65855;SDS011;52631;42.208;24.656;2022-09-09T06:48:20;13.80;;;7.95;;
65855;SDS011;52631;42.208;24.656;2022-09-09T06:50:46;10.90;;;6.93;;
65855;SDS011;52631;42.208;24.656;2022-09-09T06:53:12;9.88;;;6.57;;
65855;SDS011;52631;42.208;24.656;2022-09-09T06:55:37;13.07;;;6.63;;
65855;SDS011;52631;42.208;24.656;2022-09-09T06:58:08;15.73;;;7.43;;
65855;SDS011;52631;42.208;24.656;2022-09-09T07:00:34;7.78;;;6.10;;
65855;SDS011;52631;42.208;24.656;2022-09-09T07:02:59;13.07;;;6.40;;
65855;SDS011;52631;42.208;24.656;2022-09-09T07:05:28;16.10;;;6.78;;
65855;SDS011;52631;42.208;24.656;2022-09-09T07:07:53;10.18;;;6.45;;
65855;SDS011;52631;42.208;24.656;2022-09-09T07:10:19;35.35;;;13.95;;
65855;SDS011;52631;42.208;24.656;2022-09-09T07:12:44;17.80;;;6.97;;
65855;SDS011;52631;42.208;24.656;2022-09-09T07:15:09;13.43;;;5.72;;
65855;SDS011;52631;42.208;24.656;2022-09-09T07:17:36;9.55;;;5.82;;
65855;SDS011;52631;42.208;24.656;2022-09-09T07:20:01;10.90;;;6.50;;
65855;SDS011;52631;42.208;24.656;2022-09-09T07:22:29;9.38;;;6.25;;
65855;SDS011;52631;42.208;24.656;2022-09-09T07:24:54;8.52;;;5.63;;
65855;SDS011;52631;42.208;24.656;2022-09-09T07:27:20;10.82;;;5.07;;
65855;SDS011;52631;42.208;24.656;2022-09-09T07:29:46;11.98;;;5.95;;
65855;SDS011;52631;42.208;24.656;2022-09-09T07:32:11;10.18;;;5.95;;
65855;SDS011;52631;42.208;24.656;2022-09-09T07:34:37;11.32;;;5.55;;
65855;SDS011;52631;42.208;24.656;2022-09-09T07:37:02;12.20;;;5.50;;
65855;SDS011;52631;42.208;24.656;2022-09-09T07:39:28;10.57;;;5.07;;
65855;SDS011;52631;42.208;24.656;2022-09-09T07:41:53;7.70;;;5.13;;
65855;SDS011;52631;42.208;24.656;2022-09-09T07:44:23;9.85;;;5.22;;
65855;SDS011;52631;42.208;24.656;2022-09-09T07:46:50;10.27;;;5.10;;
65855;SDS011;52631;42.208;24.656;2022-09-09T07:49:15;10.95;;;5.68;;
65855;SDS011;52631;42.208;24.656;2022-09-09T07:51:44;15.32;;;6.60;;
65855;SDS011;52631;42.208;24.656;2022-09-09T07:54:11;10.57;;;6.05;;
65855;SDS011;52631;42.208;24.656;2022-09-09T07:56:38;10.27;;;6.55;;
65855;SDS011;52631;42.208;24.656;2022-09-09T07:59:04;9.70;;;6.18;;
65855;SDS011;52631;42.208;24.656;2022-09-09T08:01:35;9.23;;;4.90;;
65855;SDS011;52631;42.208;24.656;2022-09-09T08:04:05;10.25;;;4.93;;
65855;SDS011;52631;42.208;24.656;2022-09-09T08:06:34;10.02;;;5.80;;
65855;SDS011;52631;42.208;24.656;2022-09-09T08:09:02;11.52;;;5.85;;
65855;SDS011;52631;42.208;24.656;2022-09-09T08:11:28;6.47;;;4.80;;
65855;SDS011;52631;42.208;24.656;2022-09-09T08:13:54;10.45;;;5.40;;
65855;SDS011;52631;42.208;24.656;2022-09-09T08:16:21;7.88;;;5.00;;
65855;SDS011;52631;42.208;24.656;2022-09-09T08:18:49;8.32;;;5.20;;
65855;SDS011;52631;42.208;24.656;2022-09-09T08:21:20;9.43;;;5.30;;
65855;SDS011;52631;42.208;24.656;2022-09-09T08:23:49;9.63;;;5.18;;
65855;SDS011;52631;42.208;24.656;2022-09-09T08:26:21;10.93;;;5.05;;
65855;SDS011;52631;42.208;24.656;2022-09-09T08:28:51;7.93;;;5.30;;
65855;SDS011;52631;42.208;24.656;2022-09-09T08:31:21;8.75;;;5.28;;
65855;SDS011;52631;42.208;24.656;2022-09-09T08:33:48;8.45;;;5.13;;
65855;SDS011;52631;42.208;24.656;2022-09-09T08:36:16;8.68;;;4.95;;
65855;SDS011;52631;42.208;24.656;2022-09-09T08:38:43;8.07;;;5.50;;
65855;SDS011;52631;42.208;24.656;2022-09-09T08:43:41;10.43;;;5.68;;
65855;SDS011;52631;42.208;24.656;2022-09-09T08:46:10;7.72;;;5.38;;
65855;SDS011;52631;42.208;24.656;2022-09-09T08:48:57;10.65;;;5.40;;
65855;SDS011;52631;42.208;24.656;2022-09-09T08:51:25;9.48;;;5.70;;
65855;SDS011;52631;42.208;24.656;2022-09-09T08:53:53;8.82;;;6.00;;
65855;SDS011;52631;42.208;24.656;2022-09-09T08:56:21;11.00;;;5.95;;
65855;SDS011;52631;42.208;24.656;2022-09-09T08:58:49;9.98;;;5.57;;
65855;SDS011;52631;42.208;24.656;2022-09-09T09:01:35;10.43;;;5.53;;
65855;SDS011;52631;42.208;24.656;2022-09-09T09:04:30;9.48;;;5.80;;
65855;SDS011;52631;42.208;24.656;2022-09-09T09:09:39;11.80;;;6.30;;
65855;SDS011;52631;42.208;24.656;2022-09-09T09:12:28;9.38;;;5.78;;
65855;SDS011;52631;42.208;24.656;2022-09-09T09:14:56;9.43;;;6.10;;
65855;SDS011;52631;42.208;24.656;2022-09-09T09:17:23;8.77;;;5.80;;
65855;SDS011;52631;42.208;24.656;2022-09-09T09:19:51;10.10;;;6.30;;
65855;SDS011;52631;42.208;24.656;2022-09-09T09:22:26;9.63;;;6.15;;
65855;SDS011;52631;42.208;24.656;2022-09-09T09:30:10;12.43;;;6.40;;
65855;SDS011;52631;42.208;24.656;2022-09-09T09:32:38;10.00;;;5.93;;
65855;SDS011;52631;42.208;24.656;2022-09-09T09:35:06;9.35;;;5.50;;
65855;SDS011;52631;42.208;24.656;2022-09-09T09:37:41;7.95;;;6.07;;
65855;SDS011;52631;42.208;24.656;2022-09-09T09:40:14;7.97;;;5.90;;
65855;SDS011;52631;42.208;24.656;2022-09-09T09:42:54;8.27;;;5.63;;
65855;SDS011;52631;42.208;24.656;2022-09-09T09:48:01;12.68;;;6.20;;
65855;SDS011;52631;42.208;24.656;2022-09-09T09:50:28;6.47;;;5.47;;
65855;SDS011;52631;42.208;24.656;2022-09-09T09:52:59;9.85;;;6.00;;
65855;SDS011;52631;42.208;24.656;2022-09-09T09:55:33;9.07;;;6.13;;
65855;SDS011;52631;42.208;24.656;2022-09-09T09:58:03;8.37;;;5.97;;
65855;SDS011;52631;42.208;24.656;2022-09-09T10:00:32;10.00;;;5.85;;
65855;SDS011;52631;42.208;24.656;2022-09-09T10:03:00;9.13;;;6.05;;
65855;SDS011;52631;42.208;24.656;2022-09-09T10:05:27;9.90;;;6.28;;
65855;SDS011;52631;42.208;24.656;2022-09-09T10:08:10;9.32;;;5.93;;
65855;SDS011;52631;42.208;24.656;2022-09-09T10:18:59;10.50;;;6.40;;
65855;SDS011;52631;42.208;24.656;2022-09-09T10:24:30;8.88;;;6.30;;
65855;SDS011;52631;42.208;24.656;2022-09-09T10:43:39;8.65;;;7.03;;
65855;SDS011;52631;42.208;24.656;2022-09-09T10:52:15;10.30;;;6.47;;
65855;SDS011;52631;42.208;24.656;2022-09-09T10:55:00;9.07;;;6.78;;
65855;SDS011;52631;42.208;24.656;2022-09-09T11:00:51;9.20;;;6.30;;
65855;SDS011;52631;42.208;24.656;2022-09-09T11:03:20;15.27;;;7.03;;
65855;SDS011;52631;42.208;24.656;2022-09-09T11:05:49;7.90;;;6.38;;
65855;SDS011;52631;42.208;24.656;2022-09-09T11:08:22;9.75;;;6.07;;
65855;SDS011;52631;42.208;24.656;2022-09-09T11:16:02;9.05;;;7.03;;
65855;SDS011;52631;42.208;24.656;2022-09-09T11:18:46;11.48;;;6.07;;
65855;SDS011;52631;42.208;24.656;2022-09-09T11:21:17;7.55;;;6.25;;
65855;SDS011;52631;42.208;24.656;2022-09-09T11:23:50;8.02;;;6.47;;
65855;SDS011;52631;42.208;24.656;2022-09-09T11:26:27;9.82;;;6.57;;
65855;SDS011;52631;42.208;24.656;2022-09-09T11:37:17;7.45;;;5.70;;
65855;SDS011;52631;42.208;24.656;2022-09-09T11:42:34;7.80;;;5.55;;
65855;SDS011;52631;42.208;24.656;2022-09-09T11:45:19;17.45;;;6.50;;
65855;SDS011;52631;42.208;24.656;2022-09-09T11:47:55;10.38;;;6.57;;
65855;SDS011;52631;42.208;24.656;2022-09-09T11:53:03;9.98;;;5.90;;
65855;SDS011;52631;42.208;24.656;2022-09-09T11:58:55;9.63;;;6.25;;
65855;SDS011;52631;42.208;24.656;2022-09-09T12:01:38;8.52;;;5.82;;
65855;SDS011;52631;42.208;24.656;2022-09-09T12:12:25;8.43;;;5.38;;
65855;SDS011;52631;42.208;24.656;2022-09-09T12:14:59;8.13;;;5.40;;
65855;SDS011;52631;42.208;24.656;2022-09-09T12:17:28;8.88;;;5.55;;
65855;SDS011;52631;42.208;24.656;2022-09-09T12:28:09;10.82;;;5.35;;
65855;SDS011;52631;42.208;24.656;2022-09-09T12:30:40;11.23;;;5.65;;
65855;SDS011;52631;42.208;24.656;2022-09-09T12:33:15;8.27;;;5.70;;
65855;SDS011;52631;42.208;24.656;2022-09-09T12:35:43;10.30;;;6.18;;
65855;SDS011;52631;42.208;24.656;2022-09-09T12:38:14;7.90;;;5.85;;
65855;SDS011;52631;42.208;24.656;2022-09-09T12:40:53;13.00;;;6.10;;
65855;SDS011;52631;42.208;24.656;2022-09-09T12:43:21;10.55;;;5.80;;
65855;SDS011;52631;42.208;24.656;2022-09-09T12:45:47;9.00;;;6.38;;
65855;SDS011;52631;42.208;24.656;2022-09-09T12:48:15;14.43;;;12.60;;
65855;SDS011;52631;42.208;24.656;2022-09-09T12:50:44;9.73;;;5.60;;
65855;SDS011;52631;42.208;24.656;2022-09-09T12:55:56;10.48;;;5.63;;
65855;SDS011;52631;42.208;24.656;2022-09-09T12:58:24;7.07;;;5.20;;
65855;SDS011;52631;42.208;24.656;2022-09-09T13:00:51;7.63;;;5.50;;
65855;SDS011;52631;42.208;24.656;2022-09-09T13:03:18;10.65;;;5.47;;
65855;SDS011;52631;42.208;24.656;2022-09-09T13:05:48;6.82;;;5.97;;
65855;SDS011;52631;42.208;24.656;2022-09-09T13:08:14;7.93;;;5.60;;
65855;SDS011;52631;42.208;24.656;2022-09-09T13:10:50;10.00;;;5.43;;
65855;SDS011;52631;42.208;24.656;2022-09-09T13:13:21;9.52;;;5.25;;
65855;SDS011;52631;42.208;24.656;2022-09-09T13:15:52;11.57;;;6.00;;
65855;SDS011;52631;42.208;24.656;2022-09-09T13:20:47;13.00;;;5.97;;
65855;SDS011;52631;42.208;24.656;2022-09-09T13:23:13;10.23;;;6.07;;
65855;SDS011;52631;42.208;24.656;2022-09-09T13:25:39;11.38;;;5.72;;
65855;SDS011;52631;42.208;24.656;2022-09-09T13:28:05;8.65;;;5.57;;
65855;SDS011;52631;42.208;24.656;2022-09-09T13:30:43;11.02;;;6.25;;
65855;SDS011;52631;42.208;24.656;2022-09-09T13:33:44;8.93;;;5.70;;
65855;SDS011;52631;42.208;24.656;2022-09-09T13:36:10;8.60;;;5.57;;
65855;SDS011;52631;42.208;24.656;2022-09-09T13:38:38;9.60;;;5.93;;
65855;SDS011;52631;42.208;24.656;2022-09-09T13:41:07;9.68;;;5.82;;
65855;SDS011;52631;42.208;24.656;2022-09-09T13:43:34;9.70;;;5.53;;
65855;SDS011;52631;42.208;24.656;2022-09-09T13:46:04;10.98;;;5.85;;
65855;SDS011;52631;42.208;24.656;2022-09-09T13:48:53;10.48;;;6.18;;
65855;SDS011;52631;42.208;24.656;2022-09-09T13:51:27;8.18;;;5.20;;
65855;SDS011;52631;42.208;24.656;2022-09-09T13:53:59;11.93;;;5.75;;
65855;SDS011;52631;42.208;24.656;2022-09-09T13:56:25;15.45;;;8.15;;
65855;SDS011;52631;42.208;24.656;2022-09-09T13:58:51;14.10;;;6.75;;
65855;SDS011;52631;42.208;24.656;2022-09-09T14:01:16;8.55;;;6.50;;
65855;SDS011;52631;42.208;24.656;2022-09-09T14:03:42;11.43;;;6.70;;
65855;SDS011;52631;42.208;24.656;2022-09-09T14:06:08;11.32;;;6.40;;
65855;SDS011;52631;42.208;24.656;2022-09-09T14:08:34;8.55;;;6.50;;
65855;SDS011;52631;42.208;24.656;2022-09-09T14:11:04;13.43;;;7.68;;
65855;SDS011;52631;42.208;24.656;2022-09-09T14:13:30;10.48;;;7.60;;
65855;SDS011;52631;42.208;24.656;2022-09-09T14:15:56;12.20;;;6.00;;
65855;SDS011;52631;42.208;24.656;2022-09-09T14:18:22;9.00;;;6.57;;
65855;SDS011;52631;42.208;24.656;2022-09-09T14:20:48;13.40;;;7.10;;
65855;SDS011;52631;42.208;24.656;2022-09-09T14:23:15;12.77;;;6.78;;
65855;SDS011;52631;42.208;24.656;2022-09-09T14:25:42;11.38;;;7.03;;
65855;SDS011;52631;42.208;24.656;2022-09-09T14:28:11;10.25;;;6.53;;
65855;SDS011;52631;42.208;24.656;2022-09-09T14:30:41;8.60;;;6.47;;
65855;SDS011;52631;42.208;24.656;2022-09-09T14:33:07;8.35;;;6.53;;
65855;SDS011;52631;42.208;24.656;2022-09-09T14:35:33;10.10;;;6.60;;
65855;SDS011;52631;42.208;24.656;2022-09-09T14:37:59;13.32;;;6.75;;
65855;SDS011;52631;42.208;24.656;2022-09-09T14:40:26;10.55;;;6.68;;
65855;SDS011;52631;42.208;24.656;2022-09-09T14:42:52;9.70;;;6.65;;
65855;SDS011;52631;42.208;24.656;2022-09-09T14:45:17;11.93;;;6.90;;
65855;SDS011;52631;42.208;24.656;2022-09-09T14:47:43;56.40;;;27.80;;
65855;SDS011;52631;42.208;24.656;2022-09-09T14:50:08;23.25;;;13.18;;
65855;SDS011;52631;42.208;24.656;2022-09-09T14:52:34;20.10;;;11.77;;
65855;SDS011;52631;42.208;24.656;2022-09-09T14:54:59;14.48;;;8.07;;
65855;SDS011;52631;42.208;24.656;2022-09-09T14:57:25;22.77;;;11.55;;
65855;SDS011;52631;42.208;24.656;2022-09-09T14:59:50;8.07;;;7.20;;
65855;SDS011;52631;42.208;24.656;2022-09-09T15:02:16;11.70;;;7.25;;
65855;SDS011;52631;42.208;24.656;2022-09-09T15:04:42;13.68;;;7.45;;
65855;SDS011;52631;42.208;24.656;2022-09-09T15:07:07;14.65;;;8.63;;
65855;SDS011;52631;42.208;24.656;2022-09-09T15:09:33;14.57;;;8.32;;
65855;SDS011;52631;42.208;24.656;2022-09-09T15:11:58;13.60;;;8.55;;
65855;SDS011;52631;42.208;24.656;2022-09-09T15:14:24;13.75;;;7.97;;
65855;SDS011;52631;42.208;24.656;2022-09-09T15:16:51;14.90;;;8.45;;
65855;SDS011;52631;42.208;24.656;2022-09-09T15:19:16;11.60;;;7.35;;
65855;SDS011;52631;42.208;24.656;2022-09-09T15:21:42;11.57;;;6.53;;
65855;SDS011;52631;42.208;24.656;2022-09-09T15:24:07;11.73;;;6.57;;
65855;SDS011;52631;42.208;24.656;2022-09-09T15:26:33;12.77;;;7.13;;
65855;SDS011;52631;42.208;24.656;2022-09-09T15:29:00;12.82;;;6.93;;
65855;SDS011;52631;42.208;24.656;2022-09-09T15:31:27;9.95;;;6.28;;
65855;SDS011;52631;42.208;24.656;2022-09-09T15:33:54;13.13;;;6.68;;
65855;SDS011;52631;42.208;24.656;2022-09-09T15:36:28;8.27;;;6.47;;
65855;SDS011;52631;42.208;24.656;2022-09-09T15:39:01;12.25;;;6.80;;
65855;SDS011;52631;42.208;24.656;2022-09-09T15:41:28;12.32;;;7.05;;
65855;SDS011;52631;42.208;24.656;2022-09-09T15:43:55;13.48;;;6.63;;
65855;SDS011;52631;42.208;24.656;2022-09-09T15:51:40;10.27;;;6.40;;
65855;SDS011;52631;42.208;24.656;2022-09-09T15:54:07;9.95;;;6.30;;
65855;SDS011;52631;42.208;24.656;2022-09-09T15:56:33;11.90;;;6.28;;
65855;SDS011;52631;42.208;24.656;2022-09-09T15:58:59;9.73;;;5.95;;
65855;SDS011;52631;42.208;24.656;2022-09-09T16:01:27;11.75;;;6.30;;
65855;SDS011;52631;42.208;24.656;2022-09-09T16:03:53;9.30;;;6.15;;
65855;SDS011;52631;42.208;24.656;2022-09-09T16:06:19;10.40;;;6.32;;
65855;SDS011;52631;42.208;24.656;2022-09-09T16:08:46;10.90;;;6.53;;
65855;SDS011;52631;42.208;24.656;2022-09-09T16:11:19;12.48;;;6.43;;
65855;SDS011;52631;42.208;24.656;2022-09-09T16:13:46;12.07;;;7.35;;
65855;SDS011;52631;42.208;24.656;2022-09-09T16:16:13;8.57;;;6.40;;
65855;SDS011;52631;42.208;24.656;2022-09-09T16:18:44;11.40;;;6.10;;
65855;SDS011;52631;42.208;24.656;2022-09-09T16:21:15;8.25;;;6.15;;
65855;SDS011;52631;42.208;24.656;2022-09-09T16:23:54;11.23;;;6.45;;
65855;SDS011;52631;42.208;24.656;2022-09-09T16:26:20;8.75;;;6.30;;
65855;SDS011;52631;42.208;24.656;2022-09-09T16:28:46;16.27;;;6.45;;
65855;SDS011;52631;42.208;24.656;2022-09-09T16:31:19;10.68;;;5.97;;
65855;SDS011;52631;42.208;24.656;2022-09-09T16:33:46;16.33;;;6.25;;
65855;SDS011;52631;42.208;24.656;2022-09-09T16:36:13;10.80;;;6.00;;
65855;SDS011;52631;42.208;24.656;2022-09-09T16:38:44;10.40;;;6.10;;
65855;SDS011;52631;42.208;24.656;2022-09-09T16:41:10;11.73;;;6.07;;
65855;SDS011;52631;42.208;24.656;2022-09-09T16:43:37;9.73;;;6.30;;
65855;SDS011;52631;42.208;24.656;2022-09-09T16:46:03;14.98;;;6.95;;
65855;SDS011;52631;42.208;24.656;2022-09-09T16:48:32;11.95;;;6.78;;
65855;SDS011;52631;42.208;24.656;2022-09-09T16:51:05;11.23;;;6.53;;
65855;SDS011;52631;42.208;24.656;2022-09-09T16:53:32;9.20;;;7.38;;
65855;SDS011;52631;42.208;24.656;2022-09-09T16:55:58;10.70;;;6.50;;
65855;SDS011;52631;42.208;24.656;2022-09-09T16:58:29;11.55;;;6.88;;
65855;SDS011;52631;42.208;24.656;2022-09-09T17:00:58;11.13;;;6.75;;
65855;SDS011;52631;42.208;24.656;2022-09-09T17:03:29;10.38;;;7.13;;
65855;SDS011;52631;42.208;24.656;2022-09-09T17:05:56;10.68;;;7.63;;